Time;durP1;ratioP1;P1;durP2;ratioP2;P2;SDS_P1;SDS_P2;PMS_P1;PMS_P2;Temp;Humidity;BMP_temperature;BMP_pressure;BME280_temperature;BME280_humidity;BME280_pressure;Samples;Min_cycle;Max_cycle;Signal;HPM_P1;HPM_P2
2021/03/25 00:01:16;;;;;;;1.50;0.20;;;8.50;99.90;;;;;;5090530;28;20454;-61
2021/03/25 00:03:46;;;;;;;1.50;0.30;;;8.50;99.90;;;;;;5095288;28;20434;-61
2021/03/25 00:06:11;;;;;;;1.50;0.20;;;8.50;99.90;;;;;;5097770;28;20461;-61
2021/03/25 00:08:37;;;;;;;1.60;0.20;;;8.50;99.90;;;;;;5090207;28;20473;-61
2021/03/25 00:11:03;;;;;;;1.50;0.20;;;8.40;99.90;;;;;;5095339;28;20203;-61
2021/03/25 00:13:29;;;;;;;1.60;0.20;;;8.40;99.90;;;;;;5107553;28;20191;-61
2021/03/25 00:15:55;;;;;;;1.53;0.20;;;8.40;99.90;;;;;;5098035;28;20457;-61
2021/03/25 00:18:21;;;;;;;1.53;0.30;;;8.40;99.90;;;;;;5093374;28;20437;-61
2021/03/25 00:20:47;;;;;;;1.57;0.20;;;8.40;99.90;;;;;;5094541;28;20249;-61
2021/03/25 00:23:14;;;;;;;1.50;0.20;;;8.40;99.90;;;;;;5089329;28;20436;-61
2021/03/25 00:25:41;;;;;;;1.70;0.70;;;8.40;99.90;;;;;;5095319;28;20434;-60
2021/03/25 00:28:09;;;;;;;1.50;0.30;;;8.30;99.90;;;;;;5090258;28;20429;-60
2021/03/25 00:30:35;;;;;;;1.50;0.20;;;8.30;99.90;;;;;;5092689;28;20558;-61
2021/03/25 00:33:03;;;;;;;1.50;0.20;;;8.30;99.90;;;;;;5095251;28;20433;-61
2021/03/25 00:35:30;;;;;;;1.57;0.30;;;8.30;99.90;;;;;;5090746;28;20481;-61
2021/03/25 00:37:56;;;;;;;1.53;0.20;;;8.20;99.90;;;;;;5092410;28;20513;-61
2021/03/25 00:40:21;;;;;;;1.53;0.20;;;8.20;99.90;;;;;;5094659;28;20924;-61
2021/03/25 00:42:48;;;;;;;1.53;0.20;;;8.10;99.90;;;;;;5094703;28;20441;-61
2021/03/25 00:45:28;;;;;;;1.57;0.20;;;8.10;99.90;;;;;;5092628;28;20199;-61
2021/03/25 00:47:54;;;;;;;1.50;0.20;;;8.10;99.90;;;;;;5095107;28;20445;-61
2021/03/25 00:50:39;;;;;;;1.60;0.30;;;8.10;99.90;;;;;;5099986;28;20974;-61
2021/03/25 00:53:06;;;;;;;1.50;0.20;;;8.00;99.90;;;;;;5094245;28;20267;-61
2021/03/25 00:55:32;;;;;;;1.50;0.23;;;8.00;99.90;;;;;;5095558;28;20465;-61
2021/03/25 00:57:57;;;;;;;3.90;1.60;;;8.00;99.90;;;;;;5093662;28;20434;-62
2021/03/25 01:00:26;;;;;;;1.80;0.50;;;8.00;99.90;;;;;;5087195;28;20662;-62
2021/03/25 01:02:52;;;;;;;2.67;1.23;;;8.00;99.90;;;;;;5094520;28;20195;-62
2021/03/25 01:05:20;;;;;;;1.50;0.20;;;8.00;99.90;;;;;;5092747;28;20442;-62
2021/03/25 01:07:46;;;;;;;1.50;0.20;;;8.00;99.90;;;;;;5089401;28;20449;-61
2021/03/25 01:10:15;;;;;;;1.53;0.20;;;8.00;99.90;;;;;;5093577;28;20426;-62
2021/03/25 01:12:41;;;;;;;1.50;0.20;;;8.00;99.90;;;;;;5097738;28;20294;-62
2021/03/25 01:15:08;;;;;;;1.50;0.20;;;8.00;99.90;;;;;;5090315;28;20464;-61
2021/03/25 01:17:34;;;;;;;1.60;0.30;;;8.00;99.90;;;;;;5093832;28;20446;-61
2021/03/25 01:20:00;;;;;;;1.50;0.20;;;8.00;99.90;;;;;;5094130;28;20536;-62
2021/03/25 01:22:25;;;;;;;1.60;0.40;;;8.00;99.90;;;;;;5092873;28;20975;-61
2021/03/25 01:24:51;;;;;;;1.63;0.57;;;8.00;99.90;;;;;;5093920;28;20685;-61
2021/03/25 01:27:16;;;;;;;2.23;1.10;;;7.80;99.90;;;;;;5108639;28;20689;-63
2021/03/25 01:29:42;;;;;;;1.57;0.20;;;7.80;99.90;;;;;;5111370;28;20184;-61
2021/03/25 01:32:07;;;;;;;1.50;0.20;;;7.80;99.90;;;;;;5105814;28;20811;-62
2021/03/25 01:34:33;;;;;;;1.50;0.20;;;7.80;99.90;;;;;;5112514;28;20214;-61
2021/03/25 01:37:00;;;;;;;1.57;0.20;;;7.80;99.90;;;;;;5109435;28;20255;-61
2021/03/25 01:39:26;;;;;;;1.53;0.20;;;7.90;99.90;;;;;;5110427;28;20187;-61
2021/03/25 01:41:51;;;;;;;1.50;0.20;;;7.80;99.90;;;;;;5105762;28;20446;-61
2021/03/25 01:44:50;;;;;;;1.80;0.87;;;7.80;99.90;;;;;;5093343;28;21137;-61
2021/03/25 01:47:16;;;;;;;1.50;0.20;;;7.90;99.90;;;;;;5034341;28;20608;-61
2021/03/25 01:49:42;;;;;;;1.83;0.80;;;7.90;99.90;;;;;;5091705;28;20460;-61
2021/03/25 01:52:28;;;;;;;1.60;0.50;;;7.90;99.90;;;;;;5091982;28;20469;-61
2021/03/25 01:55:20;;;;;;;10.80;9.67;;;7.80;99.90;;;;;;5092254;28;20251;-61
2021/03/25 01:58:20;;;;;;;1.50;0.20;;;7.70;99.90;;;;;;5090046;28;20452;-62
2021/03/25 02:01:07;;;;;;;1.50;0.20;;;7.80;99.90;;;;;;5089068;28;20450;-61
2021/03/25 02:03:46;;;;;;;1.50;0.20;;;7.80;99.90;;;;;;5088746;28;20924;-61
2021/03/25 02:06:59;;;;;;;1.50;0.20;;;7.80;99.90;;;;;;5085712;28;20454;-61
2021/03/25 02:09:36;;;;;;;1.50;0.20;;;7.90;99.90;;;;;;5015667;28;20461;-62
2021/03/25 02:12:15;;;;;;;1.50;0.20;;;7.80;99.90;;;;;;5009831;28;20490;-61
2021/03/25 02:14:47;;;;;;;1.50;0.20;;;7.80;99.90;;;;;;5060629;28;20480;-62
2021/03/25 02:17:15;;;;;;;1.50;0.20;;;7.70;99.90;;;;;;5093415;28;20426;-61
2021/03/25 02:20:08;;;;;;;12.30;11.10;;;7.70;99.90;;;;;;5097794;28;20462;-61
2021/03/25 02:22:53;;;;;;;1.53;0.20;;;7.70;99.90;;;;;;5096830;28;20445;-62
2021/03/25 02:25:27;;;;;;;1.50;0.20;;;7.70;99.90;;;;;;5093400;28;20437;-61
2021/03/25 02:28:06;;;;;;;1.50;0.20;;;7.70;99.90;;;;;;5093486;28;20460;-62
2021/03/25 02:30:49;;;;;;;1.53;0.20;;;7.70;99.90;;;;;;5091168;28;20438;-61
2021/03/25 02:33:19;;;;;;;1.53;0.30;;;7.50;99.90;;;;;;5085132;28;20430;-62
2021/03/25 02:35:58;;;;;;;2.00;1.53;;;7.30;99.90;;;;;;5091449;28;20468;-61
2021/03/25 02:38:47;;;;;;;1.50;0.20;;;7.30;99.90;;;;;;5090827;28;20978;-62
2021/03/25 02:41:25;;;;;;;1.50;0.20;;;7.30;99.90;;;;;;5089960;28;20513;-61
2021/03/25 02:44:01;;;;;;;1.50;0.20;;;7.20;99.90;;;;;;5097585;28;20421;-61
2021/03/25 02:46:32;;;;;;;1.50;0.20;;;7.10;99.90;;;;;;5091953;28;20950;-61
2021/03/25 02:49:02;;;;;;;1.53;0.30;;;7.10;99.90;;;;;;5092573;28;20525;-61
2021/03/25 02:51:44;;;;;;;1.50;0.20;;;7.10;99.90;;;;;;5092968;28;20462;-61
2021/03/25 02:54:10;;;;;;;1.50;0.20;;;7.00;99.90;;;;;;5073502;28;20465;-62
2021/03/25 02:56:44;;;;;;;1.50;0.20;;;7.00;99.90;;;;;;5091512;28;20437;-61
2021/03/25 02:59:25;;;;;;;1.53;0.20;;;7.10;99.90;;;;;;5096856;28;20451;-62
2021/03/25 03:01:55;;;;;;;1.53;0.20;;;7.10;99.90;;;;;;5091302;28;20522;-62
2021/03/25 03:04:28;;;;;;;1.50;0.20;;;6.90;99.90;;;;;;5089486;28;20445;-62
2021/03/25 03:07:10;;;;;;;1.80;0.37;;;6.80;99.90;;;;;;5096176;28;20301;-61
2021/03/25 03:09:42;;;;;;;1.57;0.20;;;6.80;99.90;;;;;;5091494;28;20438;-62
2021/03/25 03:12:22;;;;;;;1.50;0.20;;;6.80;99.90;;;;;;5086905;28;20460;-61
2021/03/25 03:15:15;;;;;;;1.50;0.20;;;6.80;99.90;;;;;;5090873;28;21300;-62
2021/03/25 03:17:47;;;;;;;1.50;0.20;;;6.80;99.90;;;;;;5077175;28;20442;-61
2021/03/25 03:20:19;;;;;;;1.50;0.20;;;6.90;99.90;;;;;;5091111;28;20438;-62
2021/03/25 03:22:45;;;;;;;1.52;0.20;;;6.90;99.90;;;;;;5089874;28;20430;-61
2021/03/25 03:25:15;;;;;;;1.50;0.20;;;6.90;99.90;;;;;;5088680;28;20172;-61
2021/03/25 03:27:47;;;;;;;1.50;0.20;;;7.00;99.90;;;;;;5089267;28;20457;-62
2021/03/25 03:30:40;;;;;;;1.52;0.20;;;7.00;99.90;;;;;;5082439;28;20430;-61
2021/03/25 03:33:46;;;;;;;1.70;0.70;;;6.90;99.90;;;;;;5087770;28;20184;-61
2021/03/25 03:36:18;;;;;;;1.50;0.20;;;6.90;99.90;;;;;;5089971;28;20549;-62
2021/03/25 03:39:10;;;;;;;1.50;0.30;;;6.80;99.90;;;;;;5088103;28;20190;-62
2021/03/25 03:41:58;;;;;;;1.52;0.30;;;6.70;99.90;;;;;;5085353;28;20241;-61
2021/03/25 03:44:30;;;;;;;1.50;0.20;;;6.50;99.90;;;;;;5088577;28;20195;-62
2021/03/25 03:46:58;;;;;;;1.53;0.30;;;6.60;99.90;;;;;;5091096;28;20184;-61
2021/03/25 03:49:45;;;;;;;1.50;0.20;;;6.50;99.90;;;;;;5089785;28;20581;-62
2021/03/25 03:52:17;;;;;;;1.50;0.30;;;6.60;99.90;;;;;;5086239;28;20208;-61
2021/03/25 03:54:44;;;;;;;1.50;0.20;;;6.70;99.90;;;;;;5088622;28;20196;-61
2021/03/25 03:57:13;;;;;;;1.50;0.20;;;6.80;99.90;;;;;;5088708;28;20188;-61
2021/03/25 04:00:08;;;;;;;1.50;0.20;;;6.80;99.90;;;;;;5087873;28;20191;-61
2021/03/25 04:02:40;;;;;;;1.52;0.20;;;6.90;99.90;;;;;;5089544;28;20475;-61
2021/03/25 04:05:08;;;;;;;1.50;0.20;;;6.90;99.90;;;;;;5088599;28;20184;-61
2021/03/25 04:07:38;;;;;;;1.50;0.20;;;6.90;99.90;;;;;;5088573;28;20196;-62
2021/03/25 04:10:43;;;;;;;1.50;0.20;;;6.80;99.90;;;;;;5092348;28;20446;-61
2021/03/25 04:13:12;;;;;;;1.53;0.20;;;6.80;99.90;;;;;;5042413;28;20472;-62
2021/03/25 04:15:42;;;;;;;1.55;0.20;;;6.80;99.90;;;;;;5095151;28;20518;-61
2021/03/25 04:18:16;;;;;;;1.52;0.20;;;6.70;99.90;;;;;;5087762;28;20183;-62
2021/03/25 04:20:53;;;;;;;1.50;0.20;;;6.60;99.90;;;;;;5092244;28;20203;-61
2021/03/25 04:23:21;;;;;;;1.55;0.30;;;6.50;99.90;;;;;;5090088;28;20184;-62
2021/03/25 04:25:56;;;;;;;1.52;0.20;;;6.50;99.90;;;;;;5091812;28;20556;-61
2021/03/25 04:28:34;;;;;;;1.60;0.20;;;6.40;99.90;;;;;;5088595;28;20186;-61
2021/03/25 04:30:59;;;;;;;1.52;0.20;;;6.40;99.90;;;;;;5090826;28;20283;-61
2021/03/25 04:33:27;;;;;;;1.50;0.20;;;6.40;99.90;;;;;;5094056;28;20207;-61
2021/03/25 04:35:54;;;;;;;1.50;0.20;;;6.40;99.90;;;;;;5093146;28;20207;-61
2021/03/25 04:38:23;;;;;;;1.73;0.70;;;6.40;99.90;;;;;;5089718;28;20183;-61
2021/03/25 04:40:49;;;;;;;1.50;0.20;;;6.40;99.90;;;;;;5092507;28;20258;-61
2021/03/25 04:43:17;;;;;;;1.50;0.20;;;6.30;99.90;;;;;;5092826;28;20196;-61
2021/03/25 04:46:04;;;;;;;1.55;0.20;;;6.30;99.90;;;;;;5093119;28;20180;-61
2021/03/25 04:48:36;;;;;;;1.50;0.20;;;6.30;99.90;;;;;;5093276;28;20207;-61
2021/03/25 04:51:14;;;;;;;5.53;2.90;;;6.30;99.90;;;;;;5090871;28;20291;-61
2021/03/25 04:53:41;;;;;;;1.52;0.20;;;6.20;99.90;;;;;;5087402;28;20192;-61
2021/03/25 04:56:12;;;;;;;10.20;6.93;;;6.20;99.90;;;;;;5093799;28;20639;-61
2021/03/25 04:58:47;;;;;;;1.55;0.20;;;6.10;99.90;;;;;;5092295;28;20194;-66
2021/03/25 05:01:23;;;;;;;1.52;0.20;;;6.00;99.90;;;;;;5085710;28;20212;-61
2021/03/25 05:03:54;;;;;;;1.52;0.20;;;6.00;99.90;;;;;;5092127;28;20515;-61
2021/03/25 05:06:24;;;;;;;1.98;1.27;;;6.00;99.90;;;;;;5092759;28;20608;-62
2021/03/25 05:08:52;;;;;;;1.60;0.38;;;6.10;99.90;;;;;;5108913;28;20205;-62
2021/03/25 05:11:27;;;;;;;1.55;0.25;;;6.00;99.90;;;;;;5105901;28;20192;-62
2021/03/25 05:13:57;;;;;;;32.10;30.52;;;5.90;99.90;;;;;;5116415;28;20187;-61
2021/03/25 05:16:40;;;;;;;1.52;0.22;;;6.00;99.90;;;;;;5114201;28;20242;-62
2021/03/25 05:19:25;;;;;;;1.55;0.30;;;5.90;99.90;;;;;;5115205;28;20180;-61
2021/03/25 05:22:13;;;;;;;1.50;0.20;;;5.80;99.90;;;;;;5107909;28;20195;-61
2021/03/25 05:24:45;;;;;;;1.50;0.20;;;5.80;99.90;;;;;;5088956;28;20180;-61
2021/03/25 05:27:19;;;;;;;1.50;0.20;;;5.80;99.90;;;;;;5090918;28;20187;-61
2021/03/25 05:29:48;;;;;;;1.52;0.20;;;5.70;99.90;;;;;;5093118;28;20222;-61
2021/03/25 05:32:18;;;;;;;1.50;0.20;;;5.70;99.90;;;;;;5086736;28;20204;-61
2021/03/25 05:34:46;;;;;;;1.52;0.20;;;5.60;99.90;;;;;;5091024;28;20201;-61
2021/03/25 05:37:11;;;;;;;1.50;0.20;;;5.60;99.90;;;;;;5095206;28;20172;-61
2021/03/25 05:39:37;;;;;;;1.60;0.40;;;5.70;99.90;;;;;;5108545;28;20221;-61
2021/03/25 05:42:06;;;;;;;1.50;0.20;;;5.60;99.90;;;;;;5106617;28;20203;-62
2021/03/25 05:44:49;;;;;;;1.50;0.20;;;5.70;99.90;;;;;;5111505;28;20168;-61
2021/03/25 05:47:44;;;;;;;1.50;0.20;;;5.70;99.90;;;;;;5092444;28;20195;-61
2021/03/25 05:50:27;;;;;;;1.60;0.63;;;5.80;99.90;;;;;;5105917;28;20188;-62
2021/03/25 05:53:03;;;;;;;1.50;0.20;;;5.70;99.90;;;;;;5092814;28;20300;-61
2021/03/25 05:55:44;;;;;;;1.50;0.20;;;5.80;99.90;;;;;;5091649;28;20246;-61
2021/03/25 05:58:36;;;;;;;1.50;0.20;;;5.80;99.90;;;;;;5091175;28;20184;-61
2021/03/25 06:01:24;;;;;;;1.52;0.20;;;5.80;99.90;;;;;;5091979;28;20207;-61
2021/03/25 06:04:12;;;;;;;1.50;0.20;;;5.90;99.90;;;;;;5092351;28;20715;-62
2021/03/25 06:07:07;;;;;;;1.50;0.20;;;5.90;99.90;;;;;;5087178;28;20191;-61
2021/03/25 06:09:38;;;;;;;1.50;0.20;;;6.00;99.90;;;;;;5088762;28;20207;-62
2021/03/25 06:12:32;;;;;;;1.52;0.30;;;6.10;99.90;;;;;;5099975;28;20187;-61
2021/03/25 06:15:14;;;;;;;1.50;0.20;;;6.10;99.90;;;;;;5104354;28;20203;-61
2021/03/25 06:17:47;;;;;;;1.52;0.20;;;6.20;99.90;;;;;;5080055;28;20609;-61
2021/03/25 06:20:27;;;;;;;1.50;0.20;;;6.20;99.90;;;;;;5096961;28;20218;-61
2021/03/25 06:22:59;;;;;;;1.80;0.98;;;6.30;99.90;;;;;;5094334;28;20180;-61
2021/03/25 06:25:51;;;;;;;1.55;0.20;;;6.30;99.90;;;;;;5091726;28;20270;-61
2021/03/25 06:28:22;;;;;;;1.50;0.20;;;6.40;99.90;;;;;;5089565;28;20179;-61
2021/03/25 06:31:15;;;;;;;1.60;0.38;;;6.50;99.90;;;;;;5091881;28;20203;-61
2021/03/25 06:34:08;;;;;;;1.50;0.20;;;6.60;99.90;;;;;;5088720;28;20638;-61
2021/03/25 06:37:03;;;;;;;1.52;0.20;;;6.60;99.90;;;;;;5070683;28;20200;-61
2021/03/25 06:39:42;;;;;;;1.52;0.20;;;6.70;99.90;;;;;;5083070;28;20214;-61
2021/03/25 06:42:39;;;;;;;1.55;0.20;;;6.70;99.90;;;;;;5083140;28;20681;-61
2021/03/25 06:45:18;;;;;;;1.52;0.20;;;6.90;99.90;;;;;;5091834;28;20188;-61
2021/03/25 06:47:55;;;;;;;1.52;0.20;;;6.90;99.90;;;;;;5091775;28;20241;-61
2021/03/25 06:50:29;;;;;;;1.53;0.20;;;7.00;99.90;;;;;;5087194;28;20172;-61
2021/03/25 06:53:20;;;;;;;1.53;0.20;;;7.10;99.90;;;;;;5090253;28;20487;-61
2021/03/25 06:55:46;;;;;;;1.58;0.20;;;7.20;99.90;;;;;;5083798;28;20544;-61
2021/03/25 06:58:22;;;;;;;1.53;0.20;;;7.30;99.90;;;;;;5087496;28;20262;-62
2021/03/25 07:00:57;;;;;;;1.53;0.20;;;7.40;99.90;;;;;;5091160;28;20538;-61
2021/03/25 07:03:24;;;;;;;1.53;0.20;;;7.40;99.90;;;;;;5090380;28;20440;-61
2021/03/25 07:05:50;;;;;;;1.50;0.30;;;7.50;99.90;;;;;;5088002;28;21020;-61
2021/03/25 07:08:23;;;;;;;1.80;0.90;;;7.60;99.90;;;;;;5091892;28;20446;-62
2021/03/25 07:10:54;;;;;;;1.50;0.20;;;7.60;99.90;;;;;;5083220;28;20458;-61
2021/03/25 07:13:49;;;;;;;1.57;0.20;;;7.60;99.90;;;;;;5090832;28;20432;-61
2021/03/25 07:16:14;;;;;;;1.87;0.47;;;7.60;99.90;;;;;;5082470;28;20469;-61
2021/03/25 07:19:05;;;;;;;1.50;0.20;;;7.60;99.90;;;;;;5090867;28;20449;-62
2021/03/25 07:21:33;;;;;;;3.50;2.73;;;7.60;99.90;;;;;;5086248;28;20685;-61
2021/03/25 07:24:01;;;;;;;1.53;0.20;;;7.60;99.90;;;;;;5082909;28;20439;-62
2021/03/25 07:26:44;;;;;;;1.60;0.30;;;7.60;99.90;;;;;;5081881;28;20454;-62
2021/03/25 07:29:10;;;;;;;2.17;1.53;;;7.70;99.90;;;;;;5083368;28;20445;-62
2021/03/25 07:31:41;;;;;;;7.30;4.67;;;7.80;99.90;;;;;;5086114;28;20802;-62
2021/03/25 07:34:07;;;;;;;2.20;1.40;;;7.90;99.90;;;;;;5090012;28;20670;-62
2021/03/25 07:36:52;;;;;;;1.97;0.60;;;8.00;99.90;;;;;;5090402;28;20812;-63
2021/03/25 07:39:24;;;;;;;2.63;1.03;;;8.00;99.90;;;;;;5087539;28;20815;-63
2021/03/25 07:41:52;;;;;;;1.50;0.20;;;8.10;99.90;;;;;;5092942;28;20473;-62
2021/03/25 07:44:35;;;;;;;1.50;0.20;;;8.10;99.90;;;;;;5095697;28;20448;-62
2021/03/25 07:47:05;;;;;;;2.77;1.03;;;8.10;99.90;;;;;;5092238;28;20450;-62
2021/03/25 07:49:37;;;;;;;1.57;0.20;;;8.20;99.90;;;;;;5094764;28;20575;-62
2021/03/25 07:52:27;;;;;;;1.60;0.33;;;8.20;99.90;;;;;;5097702;28;20832;-62
2021/03/25 07:54:52;;;;;;;1.50;0.20;;;8.30;99.90;;;;;;5092835;28;20461;-61
2021/03/25 07:57:20;;;;;;;1.60;0.20;;;8.30;99.90;;;;;;5091449;28;20441;-62
2021/03/25 07:59:51;;;;;;;1.50;0.20;;;8.40;99.90;;;;;;5088207;28;20176;-61
2021/03/25 08:02:30;;;;;;;2.97;1.30;;;8.40;99.90;;;;;;5091646;28;20462;-62
2021/03/25 08:05:11;;;;;;;1.50;0.20;;;8.50;99.90;;;;;;5093926;28;20516;-62
2021/03/25 08:07:37;;;;;;;1.60;0.30;;;8.60;99.90;;;;;;5086892;28;20464;-61
2021/03/25 08:10:03;;;;;;;5.10;2.90;;;8.60;99.90;;;;;;5090100;28;21153;-61
2021/03/25 08:12:35;;;;;;;3.93;2.43;;;8.70;99.90;;;;;;5096941;28;20453;-61
2021/03/25 08:15:09;;;;;;;1.60;0.20;;;8.80;99.90;;;;;;5091362;28;20754;-61
2021/03/25 08:17:48;;;;;;;1.50;0.20;;;8.90;99.90;;;;;;5079399;28;20581;-63
2021/03/25 08:20:25;;;;;;;3.80;1.43;;;8.90;99.90;;;;;;5075862;28;20453;-65
2021/03/25 08:23:17;;;;;;;1.50;0.20;;;9.00;99.90;;;;;;5091368;28;20425;-63
2021/03/25 08:25:45;;;;;;;1.57;0.30;;;9.10;99.90;;;;;;5091650;28;20563;-63
2021/03/25 08:28:40;;;;;;;1.80;0.93;;;9.20;99.90;;;;;;5091658;28;20805;-63
2021/03/25 08:31:19;;;;;;;1.57;0.20;;;9.30;99.90;;;;;;5094844;28;20493;-63
2021/03/25 08:34:11;;;;;;;2.03;0.80;;;9.40;99.90;;;;;;5094509;28;20960;-62
2021/03/25 08:37:01;;;;;;;4.03;2.30;;;9.50;99.90;;;;;;5116119;28;20433;-65
2021/03/25 08:39:46;;;;;;;2.43;1.47;;;9.70;99.90;;;;;;5100322;28;20553;-63
2021/03/25 08:42:31;;;;;;;3.10;1.17;;;9.80;99.90;;;;;;5093698;28;20487;-63
2021/03/25 08:45:15;;;;;;;2.30;0.53;;;9.90;99.90;;;;;;5091542;28;20444;-63
2021/03/25 08:47:47;;;;;;;12.10;4.80;;;10.00;99.90;;;;;;5088414;28;20553;-63
2021/03/25 08:50:34;;;;;;;9.83;1.50;;;10.10;99.90;;;;;;5103778;28;20449;-62
2021/03/25 08:53:06;;;;;;;1.57;0.20;;;10.20;99.90;;;;;;5092072;28;20953;-63
2021/03/25 08:55:37;;;;;;;1.50;0.20;;;10.20;99.90;;;;;;5093006;28;20493;-62
2021/03/25 08:58:20;;;;;;;1.50;0.20;;;10.30;99.90;;;;;;5091056;28;20438;-63
2021/03/25 09:00:49;;;;;;;19.53;5.63;;;10.40;99.90;;;;;;5092784;28;20462;-62
2021/03/25 09:03:29;;;;;;;1.93;0.80;;;10.40;99.90;;;;;;5090111;28;20442;-63
2021/03/25 09:06:04;;;;;;;1.57;0.20;;;10.40;99.90;;;;;;5087540;28;20438;-63
2021/03/25 09:08:33;;;;;;;2.50;1.27;;;10.60;99.80;;;;;;5092857;28;20437;-63
2021/03/25 09:11:06;;;;;;;2.93;1.30;;;10.60;99.00;;;;;;5089523;28;20846;-63
2021/03/25 09:13:37;;;;;;;1.53;0.30;;;10.60;99.00;;;;;;5088109;28;20439;-63
2021/03/25 09:16:10;;;;;;;9.53;3.93;;;10.70;99.00;;;;;;5076981;28;20462;-62
2021/03/25 09:18:41;;;;;;;1.60;0.20;;;10.70;98.80;;;;;;5091560;28;20491;-62
2021/03/25 09:21:23;;;;;;;1.60;0.40;;;10.80;98.90;;;;;;5088766;28;20461;-61
2021/03/25 09:24:01;;;;;;;2.80;0.93;;;10.80;98.60;;;;;;5086197;28;20462;-62
2021/03/25 09:26:27;;;;;;;6.63;3.60;;;10.90;98.30;;;;;;5093891;28;20501;-62
2021/03/25 09:28:59;;;;;;;3.97;2.40;;;11.00;98.00;;;;;;5090044;28;20521;-62
2021/03/25 09:31:35;;;;;;;2.20;1.13;;;11.00;97.50;;;;;;5106121;28;20211;-61
2021/03/25 09:34:21;;;;;;;1.50;0.20;;;11.10;97.70;;;;;;5097324;28;20489;-63
2021/03/25 09:37:07;;;;;;;1.50;0.20;;;11.10;98.00;;;;;;5096848;28;20437;-66
2021/03/25 09:39:35;;;;;;;2.00;1.23;;;11.20;98.30;;;;;;5082148;28;20526;-62
2021/03/25 09:42:16;;;;;;;9.07;4.53;;;11.20;97.80;;;;;;5091507;28;20600;-63
2021/03/25 09:44:43;;;;;;;3.83;2.37;;;11.20;97.80;;;;;;5093015;28;20453;-63
2021/03/25 09:47:23;;;;;;;4.10;1.23;;;11.20;97.80;;;;;;5094845;28;20435;-63
2021/03/25 09:49:55;;;;;;;1.80;0.70;;;11.20;97.90;;;;;;5099284;28;20925;-62
2021/03/25 09:52:25;;;;;;;7.10;4.50;;;11.20;98.00;;;;;;5098344;28;20886;-62
2021/03/25 09:54:57;;;;;;;6.00;2.60;;;11.30;97.90;;;;;;5093741;28;20462;-62
2021/03/25 09:57:30;;;;;;;4.87;2.80;;;11.30;97.80;;;;;;5093590;28;20426;-62
2021/03/25 10:00:00;;;;;;;1.60;0.40;;;11.40;97.80;;;;;;5087268;28;20437;-61
2021/03/25 10:02:51;;;;;;;3.63;2.33;;;11.40;97.90;;;;;;5094542;28;20457;-62
2021/03/25 10:05:19;;;;;;;1.50;0.20;;;11.50;97.80;;;;;;5093578;28;20831;-61
2021/03/25 10:07:50;;;;;;;1.53;0.20;;;11.50;97.90;;;;;;5095442;28;20430;-62
2021/03/25 10:10:45;;;;;;;3.87;2.60;;;11.60;97.80;;;;;;5092789;28;21001;-61
2021/03/25 10:13:16;;;;;;;4.23;3.10;;;11.70;97.60;;;;;;5083703;28;20988;-62
2021/03/25 10:15:48;;;;;;;4.67;2.00;;;11.80;97.80;;;;;;5089690;28;20510;-62
2021/03/25 10:18:17;;;;;;;1.77;0.50;;;11.80;97.50;;;;;;5095543;28;20524;-62
2021/03/25 10:20:52;;;;;;;1.50;0.20;;;11.90;97.30;;;;;;5095271;28;20445;-62
2021/03/25 10:23:29;;;;;;;6.57;3.60;;;12.00;97.60;;;;;;5096745;28;20494;-62
2021/03/25 10:26:10;;;;;;;1.83;0.30;;;12.10;97.40;;;;;;5091385;28;20521;-62
2021/03/25 10:29:02;;;;;;;1.53;0.20;;;12.20;97.20;;;;;;5089323;28;20510;-62
2021/03/25 10:31:36;;;;;;;1.83;0.57;;;12.20;97.00;;;;;;5076775;28;20987;-62
2021/03/25 10:34:07;;;;;;;1.50;0.20;;;12.30;96.80;;;;;;5094056;28;20434;-62
2021/03/25 10:37:02;;;;;;;1.83;0.57;;;12.30;96.80;;;;;;5091459;28;20466;-62
2021/03/25 10:39:32;;;;;;;1.50;0.20;;;12.40;96.70;;;;;;5094643;28;20430;-63
2021/03/25 10:42:19;;;;;;;1.50;0.20;;;12.50;96.50;;;;;;5096937;28;20457;-62
2021/03/25 10:44:44;;;;;;;2.67;2.00;;;12.60;96.50;;;;;;5093347;28;20512;-62
2021/03/25 10:47:30;;;;;;;2.10;0.87;;;12.70;96.10;;;;;;5091989;28;20462;-62
2021/03/25 10:50:00;;;;;;;1.70;0.77;;;12.80;96.10;;;;;;5094364;28;20183;-61
2021/03/25 10:52:41;;;;;;;3.30;1.37;;;12.90;95.90;;;;;;5094111;28;20466;-63
2021/03/25 10:55:18;;;;;;;3.23;1.20;;;13.00;95.40;;;;;;5090792;28;20465;-63
2021/03/25 10:57:48;;;;;;;3.40;1.83;;;13.10;95.20;;;;;;5100782;28;20429;-64
2021/03/25 11:00:34;;;;;;;11.73;4.07;;;13.30;94.90;;;;;;5103928;28;20468;-63
2021/03/25 11:03:02;;;;;;;4.70;4.30;;;13.40;94.60;;;;;;5106033;28;20421;-66
2021/03/25 11:05:31;;;;;;;12.63;5.87;;;13.40;94.10;;;;;;5106122;28;20964;-62
2021/03/25 11:08:03;;;;;;;5.53;3.80;;;13.50;93.70;;;;;;5084797;28;20513;-62
2021/03/25 11:10:31;;;;;;;4.70;1.90;;;13.70;93.60;;;;;;5085090;28;20437;-62
2021/03/25 11:13:02;;;;;;;14.73;2.93;;;13.70;93.30;;;;;;5089957;28;20430;-63
2021/03/25 11:15:37;;;;;;;1.50;0.20;;;13.80;93.10;;;;;;5087465;28;21095;-63
2021/03/25 11:18:24;;;;;;;1.50;0.20;;;13.90;93.10;;;;;;5088928;28;20497;-63
2021/03/25 11:20:52;;;;;;;8.77;3.17;;;13.90;92.50;;;;;;5091279;28;20892;-63
2021/03/25 11:23:23;;;;;;;14.33;3.90;;;13.90;92.60;;;;;;5084604;28;20450;-61
2021/03/25 11:26:03;;;;;;;13.80;6.70;;;13.90;92.70;;;;;;5087854;28;20441;-61
2021/03/25 11:28:35;;;;;;;17.70;8.00;;;13.90;92.60;;;;;;5090967;28;20434;-62
2021/03/25 11:31:24;;;;;;;7.50;4.07;;;13.90;93.00;;;;;;5093446;28;20450;-63
2021/03/25 11:33:51;;;;;;;5.33;2.67;;;13.80;92.60;;;;;;5088878;28;20446;-61
2021/03/25 11:36:34;;;;;;;1.80;0.67;;;13.80;92.80;;;;;;5087825;28;20496;-62
2021/03/25 11:39:17;;;;;;;8.67;6.63;;;13.90;93.00;;;;;;5090272;28;20871;-63
2021/03/25 11:41:45;;;;;;;14.53;5.90;;;13.90;93.10;;;;;;5086814;28;20465;-64
2021/03/25 11:44:11;;;;;;;8.53;5.40;;;13.80;92.90;;;;;;5085041;28;20437;-64
2021/03/25 11:46:45;;;;;;;7.17;3.80;;;13.80;93.10;;;;;;5075678;28;20995;-63
2021/03/25 11:49:30;;;;;;;1.90;0.50;;;13.80;93.40;;;;;;5087866;28;20642;-61
2021/03/25 11:52:00;;;;;;;9.20;4.40;;;13.80;93.30;;;;;;5091345;28;20450;-64
2021/03/25 11:54:35;;;;;;;9.50;2.10;;;13.80;93.20;;;;;;5089787;28;20446;-61
2021/03/25 11:57:24;;;;;;;6.90;4.13;;;13.80;93.40;;;;;;5093097;28;21002;-61
2021/03/25 12:00:03;;;;;;;12.43;4.83;;;13.90;93.30;;;;;;5095956;28;20427;-61
2021/03/25 12:02:31;;;;;;;3.07;2.77;;;13.80;93.10;;;;;;5088882;28;20470;-61
2021/03/25 12:05:17;;;;;;;8.63;5.50;;;13.80;93.30;;;;;;5088591;28;20442;-61
2021/03/25 12:07:42;;;;;;;8.97;7.20;;;13.90;93.30;;;;;;5088751;28;20447;-61
2021/03/25 12:10:14;;;;;;;4.90;1.50;;;13.90;93.30;;;;;;5087174;28;20509;-61
2021/03/25 12:12:44;;;;;;;18.20;9.47;;;13.80;93.20;;;;;;5088860;28;20687;-61
2021/03/25 12:15:10;;;;;;;1.50;0.20;;;13.90;93.10;;;;;;5089245;28;21010;-61
2021/03/25 12:17:41;;;;;;;1.57;0.30;;;14.00;93.00;;;;;;5087182;28;20468;-61
2021/03/25 12:20:09;;;;;;;1.50;0.20;;;14.10;92.90;;;;;;5093478;28;20529;-61
2021/03/25 12:22:37;;;;;;;4.83;3.60;;;14.20;92.80;;;;;;5090740;28;20487;-61
2021/03/25 12:25:03;;;;;;;8.73;6.50;;;14.20;92.60;;;;;;5088115;28;20446;-61
2021/03/25 12:27:29;;;;;;;21.30;10.30;;;14.20;92.40;;;;;;5087296;28;20442;-62
2021/03/25 12:29:56;;;;;;;11.97;6.27;;;14.20;92.30;;;;;;5087840;28;20460;-61
2021/03/25 12:32:27;;;;;;;8.60;4.70;;;14.30;92.30;;;;;;5091968;28;20275;-60
2021/03/25 12:34:53;;;;;;;1.80;0.70;;;14.40;92.30;;;;;;5093252;28;20476;-62
2021/03/25 12:37:22;;;;;;;11.50;6.77;;;14.50;92.50;;;;;;5089204;28;20597;-62
2021/03/25 12:39:49;;;;;;;9.00;4.53;;;14.60;92.00;;;;;;5094326;28;20214;-61
2021/03/25 12:42:15;;;;;;;3.30;2.70;;;14.60;91.90;;;;;;5088761;28;20434;-60
2021/03/25 12:44:41;;;;;;;2.03;0.60;;;14.70;92.00;;;;;;5095293;28;20491;-60
2021/03/25 12:47:08;;;;;;;12.00;5.90;;;14.70;91.60;;;;;;5095053;28;20188;-60
2021/03/25 12:49:33;;;;;;;10.57;7.83;;;14.80;91.50;;;;;;5102128;28;20218;-62
2021/03/25 12:51:59;;;;;;;19.80;8.50;;;14.90;91.60;;;;;;5096782;28;20821;-61
2021/03/25 12:54:24;;;;;;;1.60;0.20;;;14.70;91.30;;;;;;5101227;28;20226;-60
2021/03/25 12:56:56;;;;;;;3.10;2.00;;;14.80;91.10;;;;;;5096341;28;20263;-60
2021/03/25 12:59:22;;;;;;;5.63;2.57;;;14.90;91.30;;;;;;5096117;28;20793;-59
2021/03/25 13:01:48;;;;;;;15.20;8.27;;;15.00;91.30;;;;;;5096773;28;20474;-59
2021/03/25 13:04:13;;;;;;;14.27;8.50;;;15.10;91.00;;;;;;5096301;28;20261;-61
2021/03/25 13:06:39;;;;;;;8.70;3.90;;;15.10;90.90;;;;;;5091461;28;20627;-60
2021/03/25 13:09:05;;;;;;;11.07;5.37;;;15.10;90.70;;;;;;5095222;28;20191;-59
2021/03/25 13:11:31;;;;;;;10.73;4.13;;;15.20;90.20;;;;;;5091551;28;20713;-59
2021/03/25 13:13:57;;;;;;;3.70;2.57;;;15.20;88.90;;;;;;5094248;28;20438;-65
2021/03/25 13:16:23;;;;;;;2.53;1.03;;;15.20;89.80;;;;;;5095846;28;20455;-59
2021/03/25 13:18:49;;;;;;;4.83;2.50;;;15.30;89.50;;;;;;5091174;28;20439;-60
2021/03/25 13:21:16;;;;;;;11.00;6.97;;;15.40;88.90;;;;;;5095881;28;20458;-60
2021/03/25 13:23:42;;;;;;;15.50;6.43;;;15.40;87.60;;;;;;5094962;28;20431;-60
2021/03/25 13:26:10;;;;;;;5.10;1.13;;;15.60;88.30;;;;;;5094747;28;20580;-59
2021/03/25 13:28:37;;;;;;;11.70;6.50;;;15.60;88.10;;;;;;5094511;28;20801;-60
2021/03/25 13:31:03;;;;;;;5.43;5.03;;;15.60;88.30;;;;;;5089789;28;20467;-60